createdAt,value
2022-12-05T00:02:11.290Z,6.43
2022-12-05T00:04:39.839Z,6.49
2022-12-05T00:07:08.269Z,6.67
2022-12-05T00:09:36.342Z,6.52
2022-12-05T00:12:05.243Z,6.54
2022-12-05T00:14:33.541Z,6.59
2022-12-05T00:17:02.897Z,6.65
2022-12-05T00:19:32.153Z,6.69
2022-12-05T00:22:00.237Z,6.62
2022-12-05T00:24:28.274Z,6.70
2022-12-05T00:26:56.699Z,6.64
2022-12-05T00:29:24.854Z,6.75
2022-12-05T00:31:53.047Z,6.50
2022-12-05T00:34:23.030Z,6.43
2022-12-05T00:36:51.538Z,6.74
2022-12-05T00:39:19.597Z,6.72
2022-12-05T00:41:48.070Z,6.67
2022-12-05T00:44:16.381Z,6.85
2022-12-05T00:46:44.773Z,6.95
2022-12-05T00:49:13.988Z,7.16
2022-12-05T00:51:44.975Z,7.07
2022-12-05T00:54:15.991Z,7.11
2022-12-05T00:56:45.580Z,6.99
2022-12-05T00:59:17.734Z,7.03
2022-12-05T01:01:47.127Z,6.97
2022-12-05T01:04:18.077Z,6.84
2022-12-05T01:06:47.982Z,7.07
2022-12-05T01:09:17.877Z,6.99
2022-12-05T01:11:46.792Z,6.83
2022-12-05T01:14:16.309Z,6.91
2022-12-05T01:16:47.145Z,6.69
2022-12-05T01:19:17.757Z,6.93
2022-12-05T01:21:48.340Z,7.05
2022-12-05T01:24:17.895Z,6.83
2022-12-05T01:26:46.744Z,7.00
2022-12-05T01:29:17.367Z,6.74
2022-12-05T01:31:45.557Z,6.95
2022-12-05T01:34:16.693Z,6.94
2022-12-05T01:36:45.030Z,7.15
2022-12-05T01:39:15.085Z,6.78
2022-12-05T01:41:46.448Z,6.96
2022-12-05T01:44:52.241Z,6.84
2022-12-05T01:47:21.225Z,6.93
2022-12-05T01:49:49.119Z,6.93
2022-12-05T01:52:23.746Z,6.81
2022-12-05T01:54:57.753Z,6.98
2022-12-05T01:57:27.108Z,6.68
2022-12-05T02:00:05.022Z,6.59
2022-12-05T02:02:34.108Z,6.93
2022-12-05T02:05:07.167Z,6.95
2022-12-05T02:07:36.686Z,7.15
2022-12-05T02:10:07.526Z,7.19
2022-12-05T02:12:38.989Z,7.25
2022-12-05T02:15:21.991Z,6.85
2022-12-05T02:17:59.385Z,6.68
2022-12-05T02:20:39.897Z,6.96
2022-12-05T02:23:50.347Z,6.71
2022-12-05T02:26:47.564Z,6.82
2022-12-05T02:29:52.593Z,6.99
2022-12-05T02:32:34.523Z,7.27
2022-12-05T02:35:11.770Z,7.53
2022-12-05T02:37:45.518Z,7.42
2022-12-05T02:40:22.726Z,7.02
2022-12-05T02:42:56.859Z,7.19
2022-12-05T02:45:27.421Z,6.82
2022-12-05T02:47:57.129Z,6.87
2022-12-05T02:50:30.877Z,7.03
2022-12-05T02:53:03.815Z,7.11
2022-12-05T02:55:34.820Z,7.36
2022-12-05T02:58:06.471Z,7.02
2022-12-05T03:00:37.665Z,7.15
2022-12-05T03:03:15.723Z,7.10
2022-12-05T03:05:50.609Z,6.90
2022-12-05T03:08:23.259Z,7.18
2022-12-05T03:10:54.884Z,7.07
2022-12-05T03:13:28.192Z,6.90
2022-12-05T03:16:00.625Z,6.99
2022-12-05T03:18:31.960Z,7.04
2022-12-05T03:21:03.847Z,6.94
2022-12-05T03:23:35.594Z,6.71
2022-12-05T03:26:14.710Z,6.76
2022-12-05T03:28:55.856Z,6.64
2022-12-05T03:31:43.961Z,6.60
2022-12-05T03:34:19.613Z,6.65
2022-12-05T03:36:54.747Z,6.52
2022-12-05T03:39:25.335Z,6.59
2022-12-05T03:42:01.266Z,6.58
2022-12-05T03:44:37.511Z,6.49
2022-12-05T03:47:11.162Z,6.54
2022-12-05T03:49:45.702Z,6.52
2022-12-05T03:52:18.001Z,6.43
2022-12-05T03:54:49.253Z,6.33
2022-12-05T03:57:24.326Z,6.49
2022-12-05T03:59:58.766Z,6.40
2022-12-05T04:02:33.355Z,6.34
2022-12-05T04:05:07.906Z,6.32
2022-12-05T04:07:40.719Z,6.25
2022-12-05T04:10:12.833Z,6.30
2022-12-05T04:12:45.840Z,6.50
2022-12-05T04:15:18.387Z,6.26
2022-12-05T04:17:53.689Z,6.24
2022-12-05T04:20:45.269Z,6.26
2022-12-05T04:23:13.672Z,6.59
2022-12-05T04:25:51.223Z,6.34
2022-12-05T04:28:29.851Z,6.41
2022-12-05T04:31:05.040Z,6.62
2022-12-05T04:33:42.484Z,6.67
2022-12-05T04:36:16.513Z,6.55
2022-12-05T04:38:49.970Z,6.49
2022-12-05T04:41:23.896Z,6.35
2022-12-05T04:43:56.131Z,6.44
2022-12-05T04:46:25.574Z,6.34
2022-12-05T04:48:59.839Z,6.34
2022-12-05T04:51:34.815Z,6.29
2022-12-05T04:54:06.974Z,6.25
2022-12-05T04:56:39.134Z,6.13
2022-12-05T04:59:07.324Z,6.63
2022-12-05T05:01:38.981Z,6.86
2022-12-05T05:04:10.953Z,6.51
2022-12-05T05:06:41.158Z,6.67
2022-12-05T05:09:10.148Z,6.60
2022-12-05T05:11:38.800Z,6.70
2022-12-05T05:14:07.278Z,6.40
2022-12-05T05:16:38.123Z,6.61
2022-12-05T05:19:07.472Z,6.62
2022-12-05T05:21:37.679Z,6.40
2022-12-05T05:24:09.434Z,6.73
2022-12-05T05:26:39.803Z,6.62
2022-12-05T05:29:09.766Z,6.70
2022-12-05T05:31:39.325Z,6.95
2022-12-05T05:34:09.810Z,7.09
2022-12-05T05:36:39.417Z,6.88
2022-12-05T05:39:13.766Z,7.05
2022-12-05T05:41:42.322Z,6.92
2022-12-05T05:44:10.848Z,6.88
2022-12-05T05:46:39.738Z,7.03
2022-12-05T05:49:08.230Z,6.65
2022-12-05T05:51:36.239Z,6.99
2022-12-05T05:54:04.620Z,6.89
2022-12-05T05:56:34.061Z,6.83
2022-12-05T05:59:04.954Z,6.95
2022-12-05T06:01:33.341Z,6.99
2022-12-05T06:04:01.788Z,6.75
2022-12-05T06:06:30.200Z,6.90
2022-12-05T06:08:58.787Z,6.92
2022-12-05T06:11:28.947Z,6.99
2022-12-05T06:14:01.444Z,7.10
2022-12-05T06:16:30.844Z,7.19
2022-12-05T06:18:59.861Z,7.16
2022-12-05T06:21:28.363Z,7.26
2022-12-05T06:23:57.491Z,7.15
2022-12-05T06:26:26.430Z,7.16
2022-12-05T06:28:55.259Z,7.40
2022-12-05T06:31:28.471Z,7.29
2022-12-05T06:33:57.657Z,7.16
2022-12-05T06:36:26.906Z,6.97
2022-12-05T06:38:55.809Z,7.05
2022-12-05T06:41:24.771Z,6.90
2022-12-05T06:44:00.158Z,6.90
2022-12-05T06:46:31.843Z,6.97
2022-12-05T06:49:01.358Z,7.01
2022-12-05T06:51:29.509Z,6.85
2022-12-05T06:53:57.878Z,6.86
2022-12-05T06:56:26.206Z,7.05
2022-12-05T06:58:56.141Z,6.95
2022-12-05T07:01:41.328Z,7.01
2022-12-05T07:04:13.903Z,6.86
2022-12-05T07:06:48.681Z,6.89
2022-12-05T07:09:20.419Z,7.03
2022-12-05T07:11:49.536Z,7.17
2022-12-05T07:14:45.681Z,7.22
2022-12-05T07:17:07.155Z,6.99
2022-12-05T07:19:37.882Z,6.98
2022-12-05T07:22:09.497Z,7.06
2022-12-05T07:24:42.331Z,7.25
2022-12-05T07:27:10.893Z,7.03
2022-12-05T07:29:39.670Z,6.93
2022-12-05T07:32:08.567Z,6.93
2022-12-05T07:34:39.189Z,6.92
2022-12-05T07:37:08.349Z,7.03
2022-12-05T07:39:37.184Z,7.16
2022-12-05T07:42:05.962Z,7.01
2022-12-05T07:44:35.309Z,7.05
2022-12-05T07:47:03.808Z,6.87
2022-12-05T07:49:32.547Z,7.03
2022-12-05T07:52:02.262Z,6.99
2022-12-05T07:54:30.371Z,6.82
2022-12-05T07:56:58.940Z,6.95
2022-12-05T07:59:27.780Z,7.11
2022-12-05T08:01:56.278Z,6.93
2022-12-05T08:04:25.259Z,6.79
2022-12-05T08:06:53.780Z,6.97
2022-12-05T08:09:23.818Z,6.98
2022-12-05T08:11:52.889Z,6.98
2022-12-05T08:14:22.449Z,6.80
2022-12-05T08:16:51.380Z,6.74
2022-12-05T08:19:20.278Z,6.58
2022-12-05T08:21:49.125Z,6.75
2022-12-05T08:24:17.943Z,6.75
2022-12-05T08:26:47.744Z,6.77
2022-12-05T08:29:17.640Z,6.77
2022-12-05T08:31:48.543Z,6.64
2022-12-05T08:34:18.977Z,6.64
2022-12-05T08:36:47.792Z,6.86
2022-12-05T08:39:19.257Z,6.33
2022-12-05T08:41:50.093Z,6.52
2022-12-05T08:44:19.313Z,6.68
2022-12-05T08:46:50.227Z,6.92
2022-12-05T08:49:19.898Z,7.00
2022-12-05T08:51:48.399Z,6.83
2022-12-05T08:54:18.779Z,6.92
2022-12-05T08:56:51.406Z,6.87
2022-12-05T08:59:20.312Z,6.92
2022-12-05T09:01:51.564Z,7.05
2022-12-05T09:04:20.241Z,7.07
2022-12-05T09:06:48.422Z,7.18
2022-12-05T09:09:17.923Z,7.03
2022-12-05T09:11:49.528Z,7.00
2022-12-05T09:14:19.687Z,6.80
2022-12-05T09:16:48.824Z,6.82
2022-12-05T09:19:19.404Z,6.59
2022-12-05T09:21:48.202Z,6.63
2022-12-05T09:24:16.938Z,6.73
2022-12-05T09:26:46.494Z,6.65
2022-12-05T09:29:17.867Z,6.60
2022-12-05T09:31:51.758Z,6.60
2022-12-05T09:34:20.758Z,6.64
2022-12-05T09:37:05.720Z,6.49
2022-12-05T09:39:39.144Z,6.73
2022-12-05T09:42:24.283Z,6.63
2022-12-05T09:45:07.497Z,6.36
2022-12-05T09:47:49.215Z,6.61
2022-12-05T09:50:21.863Z,6.46
2022-12-05T09:53:01.548Z,6.40
2022-12-05T09:55:38.180Z,6.45
2022-12-05T09:58:14.044Z,6.39
2022-12-05T10:00:43.185Z,6.49
2022-12-05T10:03:23.729Z,6.55
2022-12-05T10:06:03.613Z,6.80
2022-12-05T10:08:40.353Z,7.05
2022-12-05T10:11:16.018Z,6.71
2022-12-05T10:13:54.408Z,6.75
2022-12-05T10:16:31.458Z,6.71
2022-12-05T10:19:06.307Z,6.69
2022-12-05T10:21:39.419Z,6.56
2022-12-05T10:24:13.620Z,6.57
2022-12-05T10:26:46.634Z,6.66
2022-12-05T10:29:25.118Z,6.62
2022-12-05T10:31:59.049Z,6.74
2022-12-05T10:34:33.498Z,6.75
2022-12-05T10:37:11.677Z,7.08
2022-12-05T10:39:40.247Z,6.83
2022-12-05T10:42:12.338Z,7.12
2022-12-05T10:44:41.307Z,7.20
2022-12-05T10:47:10.581Z,7.35
2022-12-05T10:49:40.837Z,7.42
2022-12-05T10:52:10.647Z,7.37
2022-12-05T10:54:45.986Z,7.35
2022-12-05T10:57:24.339Z,7.61
2022-12-05T10:59:53.446Z,7.57
2022-12-05T11:02:27.161Z,7.38
2022-12-05T11:04:58.786Z,7.34
2022-12-05T11:07:32.470Z,7.50
2022-12-05T11:10:03.698Z,7.37
2022-12-05T11:12:39.061Z,7.36
2022-12-05T11:15:27.197Z,7.65
2022-12-05T11:17:58.806Z,7.37
2022-12-05T11:20:43.941Z,7.50
2022-12-05T11:23:27.550Z,7.33
2022-12-05T11:25:56.647Z,7.59
2022-12-05T11:28:32.411Z,7.51
2022-12-05T11:31:03.095Z,7.41
2022-12-05T11:33:32.967Z,7.31
2022-12-05T11:36:09.156Z,7.40
2022-12-05T11:38:37.758Z,7.47
2022-12-05T11:41:23.645Z,7.54
2022-12-05T11:44:11.359Z,7.40
2022-12-05T11:46:57.647Z,7.46
2022-12-05T11:49:42.482Z,7.29
2022-12-05T11:52:24.334Z,7.11
2022-12-05T11:55:06.882Z,6.72
2022-12-05T11:58:01.887Z,6.86
2022-12-05T12:00:39.918Z,7.10
2022-12-05T12:03:37.955Z,7.18
2022-12-05T12:06:22.064Z,6.98
2022-12-05T12:09:07.359Z,6.78
2022-12-05T12:11:42.910Z,6.83
2022-12-05T12:14:21.423Z,6.58
2022-12-05T12:16:59.729Z,6.58
2022-12-05T12:19:53.603Z,6.91
2022-12-05T12:22:50.356Z,6.58
2022-12-05T12:25:42.667Z,6.63
2022-12-05T12:28:27.738Z,6.56
2022-12-05T12:31:08.005Z,6.55
2022-12-05T12:33:41.730Z,6.22
2022-12-05T12:36:17.999Z,6.35
2022-12-05T12:39:04.712Z,6.39
2022-12-05T12:42:05.759Z,6.35
2022-12-05T12:45:21.576Z,6.23
2022-12-05T12:48:05.036Z,6.11
2022-12-05T12:50:41.815Z,5.87
2022-12-05T12:53:37.471Z,5.92
2022-12-05T12:56:19.099Z,6.05
2022-12-05T12:58:56.367Z,6.29
2022-12-05T13:01:35.991Z,6.22
2022-12-05T13:04:14.915Z,6.21
2022-12-05T13:06:50.972Z,5.92
2022-12-05T13:09:24.767Z,5.94
2022-12-05T13:11:57.117Z,6.15
2022-12-05T13:14:29.359Z,6.13
2022-12-05T13:17:07.447Z,6.42
2022-12-05T13:19:45.051Z,6.43
2022-12-05T13:22:15.514Z,6.42
2022-12-05T13:24:45.647Z,6.37
2022-12-05T13:27:22.815Z,6.54
2022-12-05T13:30:04.134Z,6.65
2022-12-05T13:32:41.428Z,6.49
2022-12-05T13:35:39.279Z,6.64
2022-12-05T13:38:25.160Z,6.42
2022-12-05T13:41:13.076Z,6.66
2022-12-05T13:43:49.439Z,6.75
2022-12-05T13:46:31.718Z,6.20
2022-12-05T13:49:06.963Z,5.95
2022-12-05T13:51:38.493Z,6.18
2022-12-05T13:54:12.887Z,6.09
2022-12-05T13:56:53.912Z,6.00
2022-12-05T14:00:01.853Z,6.00
2022-12-05T14:02:51.428Z,5.55
2022-12-05T14:05:38.339Z,5.81
2022-12-05T14:08:48.198Z,5.40
2022-12-05T14:11:16.502Z,5.49
2022-12-05T14:13:46.305Z,5.69
2022-12-05T14:16:47.501Z,5.45
2022-12-05T14:19:52.672Z,5.77
2022-12-05T14:22:46.280Z,5.12
2022-12-05T14:25:26.512Z,5.28
2022-12-05T14:28:02.556Z,5.42
2022-12-05T14:30:44.498Z,5.61
2022-12-05T14:33:17.450Z,5.21
2022-12-05T14:35:51.943Z,5.41
2022-12-05T14:38:30.059Z,5.29
2022-12-05T14:41:12.773Z,5.46
2022-12-05T14:43:42.682Z,5.53
2022-12-05T14:46:22.476Z,5.57
2022-12-05T14:48:52.252Z,5.55
2022-12-05T14:51:47.291Z,5.71
2022-12-05T14:54:17.999Z,5.69
2022-12-05T14:56:49.733Z,5.39
2022-12-05T14:59:26.066Z,5.56
2022-12-05T15:01:57.515Z,5.40
2022-12-05T15:04:32.454Z,5.39
2022-12-05T15:07:06.190Z,5.26
2022-12-05T15:09:46.330Z,5.36
2022-12-05T15:12:18.062Z,5.46
2022-12-05T15:14:51.975Z,5.49
2022-12-05T15:17:26.599Z,5.22
2022-12-05T15:20:05.313Z,5.22
2022-12-05T15:22:39.264Z,4.79
2022-12-05T15:25:33.565Z,5.19
2022-12-05T15:28:07.156Z,5.37
2022-12-05T15:30:41.115Z,5.51
2022-12-05T15:33:13.858Z,5.41
2022-12-05T15:35:46.641Z,5.43
2022-12-05T15:38:27.454Z,5.73
2022-12-05T15:40:56.427Z,5.67
2022-12-05T15:43:33.041Z,5.47
2022-12-05T15:46:21.155Z,5.46
2022-12-05T15:48:49.220Z,5.03
2022-12-05T15:51:18.219Z,5.25
2022-12-05T15:53:51.336Z,5.19
2022-12-05T15:56:24.187Z,5.04
2022-12-05T15:58:57.594Z,4.98
2022-12-05T16:01:29.394Z,5.10
2022-12-05T16:04:04.351Z,5.15
2022-12-05T16:06:36.548Z,4.81
2022-12-05T16:09:11.713Z,5.10
2022-12-05T16:11:40.985Z,5.21
2022-12-05T16:14:09.652Z,5.43
2022-12-05T16:16:40.005Z,4.80
2022-12-05T16:19:16.359Z,4.95
2022-12-05T16:21:47.201Z,5.49
2022-12-05T16:24:21.691Z,5.31
2022-12-05T16:26:58.287Z,5.29
2022-12-05T16:29:29.047Z,5.49
2022-12-05T16:31:59.033Z,5.51
2022-12-05T16:34:28.856Z,5.37
2022-12-05T16:36:59.000Z,5.31
2022-12-05T16:39:29.817Z,5.38
2022-12-05T16:41:59.873Z,5.28
2022-12-05T16:45:04.151Z,5.47
2022-12-05T16:48:00.483Z,5.59
2022-12-05T16:50:33.468Z,5.61
2022-12-05T16:53:15.825Z,5.60
2022-12-05T16:55:46.812Z,5.87
2022-12-05T16:58:24.190Z,5.61
2022-12-05T17:00:53.861Z,5.69
2022-12-05T17:03:37.522Z,5.35
2022-12-05T17:06:10.042Z,5.55
2022-12-05T17:08:38.885Z,5.56
2022-12-05T17:11:11.678Z,5.87
2022-12-05T17:13:40.731Z,5.44
2022-12-05T17:16:09.872Z,5.25
2022-12-05T17:18:41.567Z,5.79
2022-12-05T17:21:15.894Z,5.60
2022-12-05T17:23:47.871Z,5.51
2022-12-05T17:26:21.464Z,5.71
2022-12-05T17:28:51.033Z,5.26
2022-12-05T17:31:21.337Z,5.60
2022-12-05T17:33:50.884Z,5.65
2022-12-05T17:36:21.110Z,5.58
2022-12-05T17:38:50.544Z,5.63
2022-12-05T17:41:23.289Z,5.83
2022-12-05T17:43:52.635Z,5.67
2022-12-05T17:46:23.486Z,5.64
2022-12-05T17:48:53.365Z,5.79
2022-12-05T17:51:22.441Z,6.00
2022-12-05T17:53:53.018Z,5.69
2022-12-05T17:56:23.162Z,5.62
2022-12-05T17:58:52.041Z,5.59
2022-12-05T18:01:21.916Z,5.69
2022-12-05T18:03:50.565Z,5.32
2022-12-05T18:06:19.981Z,5.68
2022-12-05T18:08:49.754Z,5.91
2022-12-05T18:11:18.104Z,5.52
2022-12-05T18:13:47.571Z,5.71
2022-12-05T18:16:16.131Z,5.82
2022-12-05T18:18:44.388Z,5.80
2022-12-05T18:21:14.702Z,5.72
2022-12-05T18:23:42.976Z,6.02
2022-12-05T18:26:12.754Z,5.99
2022-12-05T18:28:41.367Z,5.88
2022-12-05T18:31:13.962Z,5.59
2022-12-05T18:33:42.481Z,5.88
2022-12-05T18:36:12.837Z,5.94
2022-12-05T18:38:42.851Z,5.93
2022-12-05T18:41:12.013Z,5.85
2022-12-05T18:43:40.828Z,5.90
2022-12-05T18:46:11.130Z,6.15
2022-12-05T18:48:46.092Z,5.98
2022-12-05T18:51:17.557Z,5.87
2022-12-05T18:53:52.220Z,5.99
2022-12-05T18:56:24.603Z,5.88
2022-12-05T18:58:58.581Z,6.05
2022-12-05T19:01:30.937Z,6.21
2022-12-05T19:04:01.614Z,6.03
2022-12-05T19:06:31.547Z,6.03
2022-12-05T19:09:01.073Z,5.61
2022-12-05T19:11:30.291Z,5.77
2022-12-05T19:13:59.853Z,5.64
2022-12-05T19:16:31.963Z,5.83
2022-12-05T19:19:01.848Z,5.51
2022-12-05T19:21:32.514Z,5.71
2022-12-05T19:24:02.294Z,5.65
2022-12-05T19:26:30.705Z,6.02
2022-12-05T19:28:59.842Z,6.06
2022-12-05T19:31:30.833Z,6.10
2022-12-05T19:34:01.644Z,6.16
2022-12-05T19:36:32.261Z,5.93
2022-12-05T19:39:00.744Z,6.11
2022-12-05T19:41:31.499Z,5.91
2022-12-05T19:44:01.770Z,5.95
2022-12-05T19:46:33.563Z,5.97
2022-12-05T19:49:03.593Z,6.35
2022-12-05T19:51:32.826Z,6.28
2022-12-05T19:54:02.380Z,6.23
2022-12-05T19:56:32.198Z,6.22
2022-12-05T19:59:01.305Z,6.37
2022-12-05T20:01:33.272Z,6.55
2022-12-05T20:04:04.368Z,6.51
2022-12-05T20:06:34.636Z,6.21
2022-12-05T20:09:03.419Z,6.36
2022-12-05T20:11:32.322Z,6.38
2022-12-05T20:14:02.044Z,6.33
2022-12-05T20:16:33.899Z,6.44
2022-12-05T20:19:02.463Z,6.57
2022-12-05T20:21:32.606Z,6.61
2022-12-05T20:24:02.472Z,6.71
2022-12-05T20:26:33.065Z,6.57
2022-12-05T20:29:02.120Z,6.67
2022-12-05T20:31:33.512Z,6.72
2022-12-05T20:34:01.882Z,6.81
2022-12-05T20:36:31.823Z,6.70
2022-12-05T20:39:01.933Z,6.69
2022-12-05T20:41:30.932Z,6.68
2022-12-05T20:44:00.839Z,6.81
2022-12-05T20:46:29.603Z,6.66
2022-12-05T20:49:00.129Z,6.59
2022-12-05T20:51:31.065Z,6.38
2022-12-05T20:53:59.654Z,6.55
2022-12-05T20:56:29.359Z,6.73
2022-12-05T20:58:59.411Z,6.75
2022-12-05T21:01:29.518Z,6.75
2022-12-05T21:03:59.171Z,6.77
2022-12-05T21:06:30.646Z,6.70
2022-12-05T21:08:59.431Z,6.59
2022-12-05T21:11:29.114Z,6.60
2022-12-05T21:14:00.629Z,6.68
2022-12-05T21:16:29.112Z,6.77
2022-12-05T21:19:00.428Z,6.51
2022-12-05T21:21:29.932Z,6.75
2022-12-05T21:24:00.102Z,6.51
2022-12-05T21:26:30.272Z,6.38
2022-12-05T21:29:00.149Z,6.54
2022-12-05T21:31:30.868Z,6.19
2022-12-05T21:34:03.696Z,6.42
2022-12-05T21:36:33.763Z,6.76
2022-12-05T21:39:02.475Z,6.54
2022-12-05T21:41:30.675Z,6.68
2022-12-05T21:43:59.475Z,6.66
2022-12-05T21:46:28.023Z,6.65
2022-12-05T21:48:56.769Z,6.68
2022-12-05T21:51:26.823Z,6.77
2022-12-05T21:53:55.369Z,6.74
2022-12-05T21:56:25.513Z,6.79
2022-12-05T21:58:54.279Z,6.86
2022-12-05T22:01:24.978Z,6.57
2022-12-05T22:03:54.720Z,6.49
2022-12-05T22:06:23.143Z,6.57
2022-12-05T22:08:52.966Z,6.34
2022-12-05T22:11:22.594Z,5.71
2022-12-05T22:13:51.671Z,5.65
2022-12-05T22:16:20.658Z,5.81
2022-12-05T22:18:49.449Z,6.16
2022-12-05T22:21:19.627Z,6.36
2022-12-05T22:23:48.658Z,6.46
2022-12-05T22:26:19.630Z,6.21
2022-12-05T22:28:48.641Z,6.55
2022-12-05T22:31:17.913Z,6.41
2022-12-05T22:33:46.796Z,6.58
2022-12-05T22:36:17.038Z,6.42
2022-12-05T22:38:47.062Z,6.30
2022-12-05T22:41:18.319Z,6.35
2022-12-05T22:43:47.756Z,6.13
2022-12-05T22:46:18.362Z,6.20
2022-12-05T22:48:47.955Z,6.14
2022-12-05T22:51:16.974Z,6.13
2022-12-05T22:53:45.723Z,6.33
2022-12-05T22:56:15.400Z,6.07
2022-12-05T22:58:46.414Z,6.19
2022-12-05T23:01:16.444Z,6.13
2022-12-05T23:03:46.306Z,6.28
2022-12-05T23:06:16.288Z,6.18
2022-12-05T23:08:49.383Z,6.17
2022-12-05T23:11:19.057Z,6.22
2022-12-05T23:13:49.390Z,6.31
2022-12-05T23:16:21.367Z,6.36
2022-12-05T23:18:50.566Z,6.27
2022-12-05T23:21:21.422Z,6.27
2022-12-05T23:23:51.318Z,6.31
2022-12-05T23:26:21.622Z,6.29
2022-12-05T23:28:52.061Z,5.99
2022-12-05T23:31:21.021Z,5.88
2022-12-05T23:33:51.622Z,5.96
2022-12-05T23:36:20.442Z,6.02
2022-12-05T23:38:49.385Z,6.01
2022-12-05T23:41:20.205Z,5.95
2022-12-05T23:43:51.025Z,5.90
2022-12-05T23:46:21.743Z,5.85
2022-12-05T23:48:50.910Z,6.00
2022-12-05T23:51:21.276Z,6.07
2022-12-05T23:53:53.815Z,5.91
2022-12-05T23:56:25.225Z,5.89
2022-12-05T23:58:55.786Z,5.93
